Time;durP1;ratioP1;P1;durP2;ratioP2;P2;SDS_P1;SDS_P2;PMS_P1;PMS_P2;Temp;Humidity;BMP_temperature;BMP_pressure;BME280_temperature;BME280_humidity;BME280_pressure;Samples;Min_cycle;Max_cycle;Signal;HPM_P1;HPM_P2
2022/01/20 00:03:23;;;;;;;17.37;2.67;;;4.90;99.90;;;;;;5093143;28;20091;-80
2022/01/20 00:23:09;;;;;;;15.35;1.92;;;4.90;99.90;;;;;;5091672;28;20044;-80
2022/01/20 00:27:53;;;;;;;22.02;3.67;;;4.80;99.90;;;;;;5091355;28;20507;-80
2022/01/20 00:37:15;;;;;;;16.30;3.10;;;4.80;99.90;;;;;;5095496;28;20052;-80
2022/01/20 00:38:18;;;;;;;20.45;2.28;;;4.90;99.90;;;;;;5094807;28;20377;-81
2022/01/20 00:40:44;;;;;;;24.85;3.42;;;4.90;99.90;;;;;;5095090;28;20059;-81
2022/01/20 00:43:09;;;;;;;14.17;2.17;;;5.00;99.90;;;;;;5095513;28;20476;-81
2022/01/20 00:45:35;;;;;;;14.80;2.40;;;5.00;99.90;;;;;;5078154;28;20464;-81
2022/01/20 00:48:01;;;;;;;14.47;2.23;;;5.00;99.90;;;;;;5078419;28;20127;-80
2022/01/20 00:50:27;;;;;;;11.80;2.37;;;5.00;99.90;;;;;;5094955;28;20076;-80
2022/01/20 00:52:52;;;;;;;16.00;2.43;;;5.00;99.90;;;;;;5094560;28;20047;-80
2022/01/20 00:55:19;;;;;;;11.40;1.87;;;5.00;99.90;;;;;;5094803;28;20052;-80
2022/01/20 00:57:44;;;;;;;10.15;1.65;;;5.10;99.90;;;;;;5094697;28;20040;-80
2022/01/20 01:00:12;;;;;;;12.17;2.07;;;5.10;99.90;;;;;;5078162;28;20055;-79
2022/01/20 01:02:39;;;;;;;10.88;2.00;;;5.00;99.90;;;;;;5077723;28;20052;-80
2022/01/20 01:05:06;;;;;;;9.13;1.52;;;5.10;99.90;;;;;;5077966;28;20040;-80
2022/01/20 01:10:01;;;;;;;11.68;1.85;;;5.00;99.90;;;;;;5095741;28;20058;-80
2022/01/20 01:12:38;;;;;;;11.90;1.73;;;5.00;99.90;;;;;;5078101;28;20492;-80
2022/01/20 01:15:11;;;;;;;13.27;2.15;;;5.00;99.90;;;;;;5078209;28;20109;-80
2022/01/20 01:20:22;;;;;;;13.85;2.30;;;5.00;99.90;;;;;;5095682;28;20055;-79
2022/01/20 01:22:48;;;;;;;12.10;1.90;;;5.00;99.90;;;;;;5093961;28;20060;-80
2022/01/20 01:25:15;;;;;;;11.80;1.80;;;5.00;99.90;;;;;;5077647;28;20040;-80
2022/01/20 01:27:43;;;;;;;14.20;2.17;;;5.00;99.90;;;;;;5094174;28;20036;-80
2022/01/20 01:32:53;;;;;;;11.45;1.73;;;5.10;99.90;;;;;;5094121;28;20055;-79
2022/01/20 01:35:21;;;;;;;13.45;2.10;;;5.10;99.90;;;;;;5079938;28;20048;-79
2022/01/20 01:40:20;;;;;;;17.48;2.80;;;5.10;99.90;;;;;;5094379;28;20065;-80
2022/01/20 01:42:49;;;;;;;15.77;2.55;;;5.10;99.90;;;;;;5093008;28;20079;-80
2022/01/20 01:45:24;;;;;;;10.88;2.15;;;5.10;99.90;;;;;;5093952;28;20044;-80
2022/01/20 01:47:50;;;;;;;11.75;2.20;;;5.10;99.90;;;;;;5093979;28;20055;-81
2022/01/20 01:50:16;;;;;;;15.82;2.28;;;5.10;99.90;;;;;;5094017;28;20083;-80
2022/01/20 01:52:42;;;;;;;13.40;2.30;;;5.10;99.90;;;;;;5093677;28;20087;-81
2022/01/20 01:55:08;;;;;;;17.33;2.50;;;5.20;99.90;;;;;;5094944;28;20044;-80
2022/01/20 01:57:34;;;;;;;15.20;2.45;;;5.20;99.90;;;;;;5093889;28;20480;-80
2022/01/20 02:00:00;;;;;;;14.07;2.20;;;5.30;99.90;;;;;;5076745;28;20048;-81
2022/01/20 02:02:27;;;;;;;18.67;2.63;;;5.30;99.90;;;;;;5076686;28;20040;-80
2022/01/20 02:04:52;;;;;;;22.90;3.33;;;5.30;99.90;;;;;;5076776;28;20052;-80
2022/01/20 02:18:24;;;;;;;13.20;2.92;;;5.20;99.90;;;;;;5093232;28;20059;-81
2022/01/20 02:20:50;;;;;;;15.90;2.38;;;5.20;99.90;;;;;;5076388;28;20070;-80
2022/01/20 02:23:15;;;;;;;11.73;2.10;;;5.20;99.90;;;;;;5093106;28;20040;-80
2022/01/20 02:25:41;;;;;;;16.10;2.90;;;5.10;99.90;;;;;;5093087;28;20040;-82
2022/01/20 02:28:10;;;;;;;15.97;2.47;;;5.10;99.90;;;;;;5093424;28;20040;-78
2022/01/20 02:30:43;;;;;;;16.60;2.10;;;5.00;99.90;;;;;;5094178;28;20040;-78
2022/01/20 02:33:16;;;;;;;16.83;3.05;;;5.00;99.90;;;;;;5093291;28;20109;-79
2022/01/20 02:35:49;;;;;;;13.82;2.78;;;4.90;99.90;;;;;;5093204;28;20040;-83
2022/01/20 02:38:22;;;;;;;14.30;2.70;;;4.90;99.90;;;;;;5092452;28;20054;-80
2022/01/20 02:46:06;;;;;;;18.25;3.28;;;4.80;99.90;;;;;;5092784;28;20477;-79
2022/01/20 02:48:33;;;;;;;21.30;3.03;;;4.80;99.90;;;;;;5092867;28;20090;-79
2022/01/20 02:50:59;;;;;;;20.88;3.67;;;4.80;99.90;;;;;;5075490;28;20040;-79
2022/01/20 02:53:24;;;;;;;19.10;2.87;;;4.80;99.90;;;;;;5092821;28;20071;-79
2022/01/20 02:55:51;;;;;;;22.13;3.97;;;4.80;99.90;;;;;;5092461;28;20392;-81
2022/01/20 02:58:17;;;;;;;23.73;4.07;;;4.80;99.90;;;;;;5092619;28;20044;-80
2022/01/20 03:00:45;;;;;;;25.08;3.58;;;4.80;99.90;;;;;;5092778;28;20054;-81
2022/01/20 03:03:10;;;;;;;22.30;4.47;;;4.80;99.90;;;;;;5092563;28;20059;-81
2022/01/20 03:05:36;;;;;;;28.43;5.10;;;4.80;99.90;;;;;;5092817;28;20044;-81
2022/01/20 03:08:02;;;;;;;29.67;4.20;;;4.80;99.90;;;;;;5091994;28;20052;-81
2022/01/20 03:10:28;;;;;;;37.43;6.07;;;4.90;99.90;;;;;;5075479;28;20040;-80
2022/01/20 03:12:55;;;;;;;23.70;4.63;;;4.90;99.90;;;;;;5075247;28;20050;-81
2022/01/20 03:15:22;;;;;;;24.02;4.85;;;4.90;99.90;;;;;;5059411;28;20079;-80
2022/01/20 03:17:48;;;;;;;24.85;5.00;;;4.90;99.90;;;;;;5092164;28;20131;-82
2022/01/20 03:20:14;;;;;;;31.67;5.07;;;4.80;99.90;;;;;;5075712;28;20131;-80
2022/01/20 03:22:39;;;;;;;34.97;5.80;;;4.80;99.90;;;;;;5092394;28;20055;-80
2022/01/20 03:25:06;;;;;;;23.63;4.40;;;4.70;99.90;;;;;;5074895;28;20043;-80
2022/01/20 03:27:31;;;;;;;20.52;4.00;;;4.70;99.90;;;;;;5092274;28;20087;-80
2022/01/20 03:29:57;;;;;;;25.80;4.63;;;4.70;99.90;;;;;;5091887;28;20068;-80
2022/01/20 03:32:23;;;;;;;25.00;5.47;;;4.60;99.90;;;;;;5092269;28;20438;-80
2022/01/20 03:34:49;;;;;;;26.77;4.33;;;4.60;99.90;;;;;;5075082;28;20054;-80
2022/01/20 03:37:14;;;;;;;28.13;4.57;;;4.60;99.90;;;;;;5092015;28;20093;-80
2022/01/20 03:39:40;;;;;;;19.13;3.87;;;4.60;99.90;;;;;;5093165;28;20056;-80
2022/01/20 03:42:06;;;;;;;20.43;3.57;;;4.60;99.90;;;;;;5075087;28;20048;-80
2022/01/20 03:44:31;;;;;;;28.07;4.07;;;4.60;99.90;;;;;;5075288;28;20052;-80
2022/01/20 03:47:00;;;;;;;28.17;4.30;;;4.60;99.90;;;;;;5091719;28;20361;-80
2022/01/20 03:51:52;;;;;;;27.63;4.23;;;4.60;99.90;;;;;;5091811;28;20056;-81
2022/01/20 03:54:18;;;;;;;24.15;3.42;;;4.60;99.90;;;;;;5075208;28;20050;-80
2022/01/20 03:56:44;;;;;;;18.57;4.37;;;4.60;99.90;;;;;;5092102;28;20543;-80
2022/01/20 03:59:09;;;;;;;20.93;3.33;;;4.60;99.90;;;;;;5092684;28;20065;-80
2022/01/20 04:01:35;;;;;;;20.47;3.00;;;4.60;99.90;;;;;;5074848;28;20048;-79
2022/01/20 04:04:01;;;;;;;17.90;3.43;;;4.60;99.90;;;;;;5091576;28;20184;-80
2022/01/20 04:06:28;;;;;;;18.03;3.27;;;4.60;99.90;;;;;;5076950;28;20045;-80
2022/01/20 04:08:54;;;;;;;15.05;3.33;;;4.60;99.90;;;;;;5095784;28;20052;-80
2022/01/20 04:11:23;;;;;;;15.93;3.10;;;4.50;99.90;;;;;;5078752;28;20048;-80
2022/01/20 04:13:50;;;;;;;19.30;3.50;;;4.50;99.90;;;;;;5079016;28;20472;-80
2022/01/20 04:16:20;;;;;;;21.55;3.20;;;4.50;99.90;;;;;;5095380;28;20412;-80
2022/01/20 04:18:54;;;;;;;19.65;3.53;;;4.50;99.90;;;;;;5095819;28;20040;-80
2022/01/20 04:21:25;;;;;;;15.73;3.53;;;4.60;99.90;;;;;;5096195;28;20080;-79
2022/01/20 04:23:52;;;;;;;16.55;3.72;;;4.60;99.90;;;;;;5095899;28;20052;-80
2022/01/20 04:26:18;;;;;;;23.38;4.07;;;4.40;99.90;;;;;;5095591;28;20055;-80
2022/01/20 04:28:44;;;;;;;23.42;4.10;;;4.50;99.90;;;;;;5095612;28;20055;-80
2022/01/20 04:31:09;;;;;;;17.67;3.67;;;4.40;99.90;;;;;;5095046;28;20097;-80
2022/01/20 04:33:35;;;;;;;20.83;2.97;;;4.40;99.90;;;;;;5095352;28;20393;-80
2022/01/20 04:36:01;;;;;;;19.47;3.53;;;4.40;99.90;;;;;;5061460;28;20136;-79
2022/01/20 04:38:27;;;;;;;21.65;4.03;;;4.30;99.90;;;;;;5095517;28;20498;-79
2022/01/20 04:40:53;;;;;;;14.77;3.40;;;4.40;99.90;;;;;;5061849;28;20048;-79
2022/01/20 04:43:19;;;;;;;18.57;3.30;;;4.70;99.90;;;;;;5078193;28;20177;-79
2022/01/20 04:45:53;;;;;;;14.10;2.88;;;4.30;99.90;;;;;;5096567;28;20044;-79
2022/01/20 04:57:01;;;;;;;13.70;2.65;;;4.30;99.90;;;;;;5094594;28;20048;-79
2022/01/20 04:59:17;;;;;;;19.70;2.85;;;3.90;99.90;;;;;;5094826;28;20052;-80
2022/01/20 05:01:45;;;;;;;13.43;2.30;;;3.90;99.90;;;;;;5061618;28;20044;-79
2022/01/20 05:04:11;;;;;;;14.57;2.30;;;3.90;99.90;;;;;;5077729;28;20055;-79
2022/01/20 05:06:40;;;;;;;14.90;2.57;;;3.80;99.90;;;;;;5078138;28;20052;-79
2022/01/20 05:09:05;;;;;;;16.67;3.20;;;3.90;99.90;;;;;;5095605;28;20070;-79
2022/01/20 05:11:34;;;;;;;13.37;2.53;;;3.80;99.90;;;;;;5094596;28;20040;-79
2022/01/20 05:13:59;;;;;;;12.77;2.70;;;3.80;99.90;;;;;;5095640;28;20068;-80
2022/01/20 05:16:25;;;;;;;16.90;3.20;;;3.70;99.90;;;;;;5096002;28;20454;-79
2022/01/20 05:18:51;;;;;;;17.17;2.80;;;3.70;99.90;;;;;;5060170;28;20040;-79
2022/01/20 05:21:16;;;;;;;18.73;2.63;;;3.70;99.90;;;;;;5077461;28;20040;-79
2022/01/20 05:23:42;;;;;;;16.50;2.80;;;3.70;99.90;;;;;;5077735;28;20113;-79
2022/01/20 05:26:08;;;;;;;19.43;3.17;;;3.70;99.90;;;;;;5077275;28;20118;-79
2022/01/20 05:28:33;;;;;;;21.00;3.87;;;3.70;99.90;;;;;;5094533;28;20039;-79
2022/01/20 05:30:59;;;;;;;19.77;3.00;;;3.70;99.90;;;;;;5077022;28;20435;-81
2022/01/20 05:33:25;;;;;;;21.97;4.33;;;3.60;99.90;;;;;;5094379;28;20097;-79
2022/01/20 05:35:51;;;;;;;18.55;3.63;;;3.70;99.90;;;;;;5094349;28;20043;-79
2022/01/20 05:38:17;;;;;;;20.20;3.97;;;3.80;99.90;;;;;;5076802;28;20048;-79
2022/01/20 05:40:43;;;;;;;23.37;3.27;;;3.80;99.90;;;;;;5060957;28;20131;-79
2022/01/20 05:43:08;;;;;;;18.00;3.13;;;3.80;99.90;;;;;;5094021;28;20040;-79
2022/01/20 05:45:35;;;;;;;21.40;3.73;;;3.90;99.90;;;;;;5093908;28;20058;-79
2022/01/20 05:48:11;;;;;;;17.02;2.70;;;3.90;99.90;;;;;;5093850;28;20101;-81
2022/01/20 05:50:38;;;;;;;15.55;4.07;;;3.90;99.90;;;;;;5093851;28;20044;-79
2022/01/20 05:53:05;;;;;;;17.83;2.65;;;3.90;99.90;;;;;;5093482;28;20055;-80
2022/01/20 05:55:31;;;;;;;14.65;2.78;;;3.80;99.90;;;;;;5077315;28;20044;-79
2022/01/20 05:57:56;;;;;;;16.30;3.28;;;3.80;99.90;;;;;;5077201;28;20055;-79
2022/01/20 06:00:24;;;;;;;14.47;3.03;;;3.80;99.90;;;;;;5093633;28;20143;-79
2022/01/20 06:05:34;;;;;;;28.35;3.50;;;3.90;99.90;;;;;;5093884;28;20046;-79
2022/01/20 06:08:00;;;;;;;17.23;2.93;;;3.80;99.90;;;;;;5076723;28;20134;-79
2022/01/20 06:10:26;;;;;;;16.10;2.77;;;3.80;99.90;;;;;;5093013;28;20051;-79
2022/01/20 06:12:51;;;;;;;12.30;2.37;;;3.70;99.90;;;;;;5094649;28;20109;-79
2022/01/20 06:15:17;;;;;;;11.70;2.13;;;3.70;99.90;;;;;;5076459;28;20525;-79
2022/01/20 06:17:43;;;;;;;10.50;2.37;;;3.70;99.90;;;;;;5060041;28;20495;-79
2022/01/20 06:20:10;;;;;;;15.37;3.27;;;3.70;99.90;;;;;;5094201;28;20039;-80
2022/01/20 06:22:36;;;;;;;18.13;2.78;;;3.70;99.90;;;;;;5076637;28;20036;-79
2022/01/20 06:25:03;;;;;;;15.13;2.83;;;3.70;99.90;;;;;;5093445;28;20148;-79
2022/01/20 06:27:29;;;;;;;19.38;3.53;;;3.70;99.90;;;;;;5093047;28;20048;-79
2022/01/20 06:29:55;;;;;;;19.07;3.50;;;3.70;99.90;;;;;;5076213;28;20043;-79
2022/01/20 06:32:21;;;;;;;18.25;2.92;;;3.70;99.90;;;;;;5092970;28;20051;-79
2022/01/20 06:34:47;;;;;;;17.80;2.93;;;3.60;99.90;;;;;;5093205;28;20048;-79
2022/01/20 06:37:13;;;;;;;14.30;2.83;;;3.70;99.90;;;;;;5092564;28;20411;-79
2022/01/20 06:39:39;;;;;;;22.25;3.55;;;3.70;99.90;;;;;;5093177;28;20073;-80
2022/01/20 06:42:05;;;;;;;18.35;3.47;;;3.70;99.90;;;;;;5093266;28;20055;-80
2022/01/20 06:44:31;;;;;;;17.70;3.13;;;3.70;99.90;;;;;;5093805;28;20048;-80
2022/01/20 06:46:57;;;;;;;14.13;2.77;;;3.80;99.90;;;;;;5059523;28;20565;-79
2022/01/20 06:49:23;;;;;;;14.82;2.83;;;3.70;99.90;;;;;;5059144;28;20439;-80
2022/01/20 06:51:49;;;;;;;17.07;2.53;;;3.80;99.90;;;;;;5094056;28;20094;-78
2022/01/20 06:54:16;;;;;;;16.43;2.83;;;3.70;99.90;;;;;;5092598;28;20079;-79
2022/01/20 06:56:42;;;;;;;17.08;3.42;;;3.70;99.90;;;;;;5075878;28;20090;-79
2022/01/20 06:59:13;;;;;;;19.20;2.83;;;3.70;99.90;;;;;;5075889;28;20047;-80
2022/01/20 07:01:40;;;;;;;15.45;2.85;;;3.70;99.90;;;;;;5092772;28;20062;-78
2022/01/20 07:04:08;;;;;;;19.27;3.50;;;3.80;99.90;;;;;;5092469;28;20488;-78
2022/01/20 07:06:34;;;;;;;16.25;3.33;;;3.80;99.90;;;;;;5093692;28;20055;-77
2022/01/20 07:09:00;;;;;;;13.60;2.93;;;3.80;99.90;;;;;;5092450;28;20052;-78
2022/01/20 07:11:26;;;;;;;11.23;1.63;;;3.70;99.90;;;;;;5075088;28;20075;-78
2022/01/20 07:13:52;;;;;;;13.87;2.10;;;3.70;99.90;;;;;;5092425;28;20177;-78
2022/01/20 07:16:18;;;;;;;10.73;2.10;;;3.70;99.90;;;;;;5058460;28;20052;-78
2022/01/20 07:18:43;;;;;;;11.43;2.00;;;3.60;99.90;;;;;;5093338;28;20101;-78
2022/01/20 07:21:09;;;;;;;14.77;2.43;;;3.80;99.90;;;;;;5093523;28;20523;-79
2022/01/20 07:23:35;;;;;;;13.17;2.50;;;3.80;99.90;;;;;;5092109;28;20090;-79
2022/01/20 07:26:00;;;;;;;12.43;2.43;;;3.70;99.90;;;;;;5092396;28;20139;-79
2022/01/20 07:28:26;;;;;;;14.03;2.63;;;3.70;99.90;;;;;;5075273;28;20048;-79
2022/01/20 07:30:52;;;;;;;13.30;2.30;;;3.60;99.90;;;;;;5091799;28;20048;-79
2022/01/20 07:33:19;;;;;;;11.33;2.60;;;3.60;99.90;;;;;;5075207;28;20097;-79
2022/01/20 07:35:45;;;;;;;14.98;2.65;;;3.60;99.90;;;;;;5092301;28;20051;-79
2022/01/20 07:38:11;;;;;;;20.33;3.47;;;3.60;99.90;;;;;;5074704;28;20143;-79
2022/01/20 07:40:37;;;;;;;17.97;3.57;;;3.60;99.90;;;;;;5074303;28;20052;-79
2022/01/20 07:43:03;;;;;;;20.77;2.93;;;3.60;99.90;;;;;;5092080;28;20044;-79
2022/01/20 07:45:29;;;;;;;16.10;2.80;;;3.60;99.90;;;;;;5091895;28;20051;-79
2022/01/20 07:47:55;;;;;;;23.20;3.67;;;3.70;99.90;;;;;;5092080;28;20056;-78
2022/01/20 07:50:21;;;;;;;19.80;3.28;;;3.60;99.90;;;;;;5074763;28;20048;-78
2022/01/20 07:52:47;;;;;;;20.33;3.30;;;3.70;99.90;;;;;;5091790;28;20075;-78
2022/01/20 07:55:13;;;;;;;18.55;3.85;;;3.70;99.90;;;;;;5092983;28;20094;-78
2022/01/20 07:57:40;;;;;;;17.73;3.60;;;3.70;99.90;;;;;;5091793;28;20055;-78
2022/01/20 08:00:07;;;;;;;23.35;4.47;;;3.80;99.90;;;;;;5075352;28;20397;-78
2022/01/20 08:02:33;;;;;;;16.13;3.28;;;3.70;99.90;;;;;;5092547;28;20131;-78
2022/01/20 08:04:59;;;;;;;25.13;4.30;;;3.70;99.90;;;;;;5092789;28;20075;-79
2022/01/20 08:07:25;;;;;;;17.25;2.85;;;3.80;99.90;;;;;;5092625;28;20153;-79
2022/01/20 08:09:57;;;;;;;16.03;3.73;;;3.70;99.90;;;;;;5091822;28;20113;-79
2022/01/20 08:12:27;;;;;;;17.67;3.25;;;3.90;99.90;;;;;;5091700;28;20293;-80
2022/01/20 08:14:54;;;;;;;14.85;2.92;;;3.90;99.90;;;;;;5092072;28;20036;-77
2022/01/20 08:17:20;;;;;;;27.67;4.03;;;4.00;99.90;;;;;;5091480;28;20573;-78
2022/01/20 08:19:46;;;;;;;18.17;3.27;;;3.90;99.90;;;;;;5092779;28;20075;-77
2022/01/20 08:22:11;;;;;;;20.77;3.77;;;3.90;99.90;;;;;;5075119;28;20044;-76
2022/01/20 08:24:37;;;;;;;23.20;3.93;;;3.90;99.90;;;;;;5091512;28;20044;-76
2022/01/20 08:27:03;;;;;;;20.13;3.80;;;3.80;99.90;;;;;;5091704;28;20109;-77
2022/01/20 08:29:29;;;;;;;25.90;5.03;;;3.80;99.90;;;;;;5091273;28;20052;-77
2022/01/20 08:31:55;;;;;;;21.73;3.73;;;3.80;99.90;;;;;;5092651;28;20090;-77
2022/01/20 08:34:20;;;;;;;20.37;3.77;;;3.80;99.90;;;;;;5091224;28;20044;-77
2022/01/20 08:36:46;;;;;;;14.97;3.50;;;3.80;99.90;;;;;;5092527;28;20290;-77
2022/01/20 08:39:37;;;;;;;15.90;3.70;;;3.80;99.90;;;;;;5091617;28;20051;-76
2022/01/20 08:42:00;;;;;;;17.77;3.38;;;3.70;99.90;;;;;;5092233;28;20056;-76
2022/01/20 08:44:26;;;;;;;19.88;4.03;;;3.80;99.90;;;;;;5092195;28;20044;-76
2022/01/20 08:46:53;;;;;;;26.02;3.78;;;3.80;99.90;;;;;;5091796;28;20063;-77
2022/01/20 08:49:20;;;;;;;15.30;3.05;;;3.90;99.90;;;;;;5091518;28;20052;-77
2022/01/20 08:51:46;;;;;;;15.90;3.20;;;3.80;99.90;;;;;;5091877;28;20194;-76
2022/01/20 08:54:13;;;;;;;21.95;3.17;;;3.90;99.90;;;;;;5096433;28;20048;-78
2022/01/20 08:56:40;;;;;;;19.27;3.45;;;3.90;99.90;;;;;;5094622;28;20052;-78
2022/01/20 08:59:06;;;;;;;18.58;3.55;;;3.90;99.90;;;;;;5094793;28;20040;-77
2022/01/20 09:01:38;;;;;;;22.65;3.92;;;3.90;99.90;;;;;;5094814;28;20105;-78
2022/01/20 09:04:05;;;;;;;19.10;4.10;;;4.00;99.90;;;;;;5095061;28;20056;-80
2022/01/20 09:06:31;;;;;;;17.85;3.28;;;4.00;99.90;;;;;;5095674;28;20063;-80
2022/01/20 09:08:56;;;;;;;23.30;3.55;;;4.00;99.90;;;;;;5095873;28;20040;-81
2022/01/20 09:11:25;;;;;;;20.63;3.53;;;4.10;99.90;;;;;;5061000;28;20044;-82
2022/01/20 09:16:36;;;;;;;11.67;2.70;;;4.10;99.90;;;;;;5095636;28;20055;-79
2022/01/20 09:19:03;;;;;;;15.57;3.40;;;4.10;99.90;;;;;;5094542;28;20289;-78
2022/01/20 09:21:29;;;;;;;15.57;2.88;;;4.20;99.90;;;;;;5095326;28;20044;-78
2022/01/20 09:23:56;;;;;;;18.73;2.80;;;4.30;99.90;;;;;;5095677;28;20059;-78
2022/01/20 09:26:23;;;;;;;17.60;2.95;;;4.40;99.90;;;;;;5095879;28;20474;-78
2022/01/20 09:28:49;;;;;;;15.88;2.47;;;4.40;99.90;;;;;;5094486;28;20044;-78
2022/01/20 09:31:24;;;;;;;17.77;2.93;;;4.40;99.90;;;;;;5094487;28;20127;-79
2022/01/20 09:33:51;;;;;;;13.55;3.03;;;4.40;99.90;;;;;;5095492;28;20055;-77
2022/01/20 09:36:17;;;;;;;14.02;3.15;;;4.50;99.90;;;;;;5094011;28;20051;-76
2022/01/20 09:38:43;;;;;;;20.07;3.33;;;4.60;99.90;;;;;;5094188;28;20134;-77
2022/01/20 09:41:09;;;;;;;17.33;3.25;;;4.60;99.90;;;;;;5094259;28;20294;-75
2022/01/20 09:43:35;;;;;;;21.43;3.40;;;4.60;99.90;;;;;;5095008;28;20136;-78
2022/01/20 09:46:02;;;;;;;17.02;2.78;;;4.80;99.90;;;;;;5093897;28;20039;-75
2022/01/20 09:48:29;;;;;;;13.90;2.95;;;4.70;99.90;;;;;;5094728;28;20089;-76
2022/01/20 09:50:55;;;;;;;22.98;3.50;;;4.70;99.90;;;;;;5076939;28;20047;-76
2022/01/20 09:53:23;;;;;;;15.07;3.22;;;4.70;99.90;;;;;;5095224;28;20515;-75
2022/01/20 09:55:49;;;;;;;14.80;2.90;;;4.80;99.90;;;;;;5093973;28;20166;-75
2022/01/20 09:58:15;;;;;;;15.30;2.73;;;4.90;99.90;;;;;;5095091;28;20550;-75
2022/01/20 10:00:44;;;;;;;18.88;2.58;;;4.90;99.90;;;;;;5093930;28;20044;-75
2022/01/20 10:03:13;;;;;;;14.93;2.85;;;4.90;99.90;;;;;;5094472;28;20236;-75
2022/01/20 10:05:42;;;;;;;18.05;2.88;;;4.80;99.90;;;;;;5094633;28;20055;-75
2022/01/20 10:08:10;;;;;;;16.10;3.22;;;4.80;99.90;;;;;;5094140;28;20392;-75
2022/01/20 10:10:48;;;;;;;17.08;2.88;;;4.80;99.90;;;;;;5094567;28;20048;-75
2022/01/20 10:13:16;;;;;;;20.67;2.92;;;4.90;99.90;;;;;;5077066;28;20054;-76
2022/01/20 10:15:42;;;;;;;15.88;2.97;;;5.00;99.90;;;;;;5094407;28;20399;-76
2022/01/20 10:18:09;;;;;;;13.63;2.80;;;5.10;99.30;;;;;;5093352;28;20131;-81
2022/01/20 10:20:36;;;;;;;11.18;2.35;;;5.10;98.40;;;;;;5094314;28;20133;-79
2022/01/20 10:23:02;;;;;;;11.10;2.28;;;5.00;99.00;;;;;;5093487;28;20052;-79
2022/01/20 10:25:33;;;;;;;11.07;2.13;;;4.90;99.90;;;;;;5076629;28;20043;-81
2022/01/20 10:27:59;;;;;;;16.00;2.90;;;4.80;99.90;;;;;;5094359;28;20047;-76
2022/01/20 10:30:28;;;;;;;13.50;3.03;;;4.80;99.90;;;;;;5094252;28;20105;-76
2022/01/20 10:32:59;;;;;;;12.95;3.08;;;4.70;99.90;;;;;;5093680;28;20538;-76
2022/01/20 10:35:33;;;;;;;15.50;2.30;;;4.90;99.90;;;;;;5094222;28;20052;-76
2022/01/20 10:38:13;;;;;;;12.13;2.88;;;4.80;99.90;;;;;;5094136;28;20064;-75
2022/01/20 10:40:50;;;;;;;15.65;2.75;;;4.90;99.90;;;;;;5092998;28;20126;-76
2022/01/20 10:43:24;;;;;;;19.10;3.80;;;4.90;99.90;;;;;;5093604;28;20040;-76
2022/01/20 10:46:01;;;;;;;15.05;3.45;;;4.80;99.90;;;;;;5093049;28;20052;-76
2022/01/20 10:48:27;;;;;;;18.50;3.67;;;4.80;99.90;;;;;;5093155;28;20052;-76
2022/01/20 10:50:52;;;;;;;15.47;3.17;;;4.90;99.90;;;;;;5092627;28;20048;-76
2022/01/20 10:53:20;;;;;;;10.50;2.60;;;5.00;99.90;;;;;;5093246;28;20043;-76
2022/01/20 10:55:47;;;;;;;12.55;2.10;;;4.90;99.90;;;;;;5093816;28;20075;-76
2022/01/20 10:58:22;;;;;;;7.38;1.65;;;4.80;99.90;;;;;;5093987;28;20055;-76
2022/01/20 11:00:51;;;;;;;9.02;1.80;;;4.60;99.90;;;;;;5093795;28;20036;-76
2022/01/20 11:03:18;;;;;;;12.80;1.88;;;4.60;99.90;;;;;;5093895;28;20048;-76
2022/01/20 11:05:49;;;;;;;8.88;1.70;;;4.40;99.90;;;;;;5075573;28;20111;-76
2022/01/20 11:08:16;;;;;;;15.50;2.35;;;4.40;99.90;;;;;;5094340;28;20050;-76
2022/01/20 11:10:42;;;;;;;12.40;2.15;;;4.40;99.90;;;;;;5093541;28;20087;-76
2022/01/20 11:13:12;;;;;;;19.27;2.60;;;4.40;99.90;;;;;;5093996;28;20052;-76
2022/01/20 11:15:40;;;;;;;16.70;2.55;;;4.40;99.90;;;;;;5091597;28;20048;-76
2022/01/20 11:18:08;;;;;;;13.68;2.75;;;4.40;99.90;;;;;;5093006;28;20083;-76
2022/01/20 11:20:44;;;;;;;11.52;2.95;;;4.50;99.90;;;;;;5093667;28;20036;-75
2022/01/20 11:23:10;;;;;;;17.55;2.83;;;4.50;99.90;;;;;;5093664;28;20056;-76
2022/01/20 11:25:39;;;;;;;16.63;2.80;;;4.50;99.90;;;;;;5093427;28;20047;-78
2022/01/20 11:28:16;;;;;;;18.20;3.65;;;4.70;99.90;;;;;;5093486;28;20317;-75
2022/01/20 11:31:22;;;;;;;17.13;3.00;;;4.80;99.90;;;;;;5092222;28;20123;-76
2022/01/20 11:33:48;;;;;;;13.02;2.78;;;4.80;99.90;;;;;;5087962;28;20052;-76
2022/01/20 11:36:26;;;;;;;26.35;4.15;;;4.60;99.90;;;;;;5075378;28;20052;-76
2022/01/20 11:39:00;;;;;;;20.83;4.13;;;4.60;99.90;;;;;;5093228;28;20052;-76
2022/01/20 11:41:39;;;;;;;18.45;3.42;;;4.50;99.90;;;;;;5092321;28;20492;-76
2022/01/20 11:44:14;;;;;;;24.67;4.10;;;4.50;99.90;;;;;;5093708;28;20143;-76
2022/01/20 11:46:45;;;;;;;25.23;4.18;;;4.40;99.90;;;;;;5091952;28;20056;-76
2022/01/20 11:49:14;;;;;;;21.98;3.05;;;4.40;99.90;;;;;;5093423;28;20044;-75
2022/01/20 11:51:45;;;;;;;18.45;3.15;;;4.40;99.90;;;;;;5093029;28;20040;-76
2022/01/20 11:54:12;;;;;;;18.67;3.83;;;4.40;99.90;;;;;;5093169;28;20059;-75
2022/01/20 11:56:43;;;;;;;21.90;3.00;;;4.50;99.90;;;;;;5093188;28;20048;-75
2022/01/20 11:59:12;;;;;;;16.50;3.10;;;4.50;99.90;;;;;;5075567;28;20048;-75
2022/01/20 12:01:47;;;;;;;16.77;4.05;;;4.50;99.90;;;;;;5093081;28;20040;-75
2022/01/20 12:04:14;;;;;;;15.30;2.83;;;4.60;99.90;;;;;;5093080;28;20058;-75
2022/01/20 12:06:46;;;;;;;16.50;3.72;;;4.70;99.90;;;;;;5075102;28;20090;-80
2022/01/20 12:09:14;;;;;;;12.43;2.30;;;4.80;99.90;;;;;;5093114;28;20476;-75
2022/01/20 12:11:46;;;;;;;12.35;3.10;;;4.90;99.90;;;;;;5092967;28;20052;-75
2022/01/20 12:14:32;;;;;;;23.48;3.42;;;4.90;99.90;;;;;;5093051;28;20040;-75
2022/01/20 12:17:06;;;;;;;;;;;5.00;99.90;;;;;;5093209;28;20052;-75
2022/01/20 12:19:31;;;;;;;13.32;2.53;;;5.10;99.90;;;;;;5092087;28;19920;-75
2022/01/20 12:21:57;;;;;;;16.23;2.73;;;5.00;99.90;;;;;;5092717;28;20044;-75
2022/01/20 12:24:23;;;;;;;18.47;2.60;;;5.10;99.90;;;;;;5092915;28;20040;-75
2022/01/20 12:26:49;;;;;;;16.90;2.67;;;5.10;99.90;;;;;;5092425;28;20086;-75
2022/01/20 12:29:14;;;;;;;15.93;2.93;;;5.20;99.90;;;;;;5097151;28;20055;-75
2022/01/20 12:31:54;;;;;;;16.30;3.27;;;5.20;99.90;;;;;;5096729;28;20047;-74
2022/01/20 12:34:20;;;;;;;18.25;3.13;;;5.20;99.90;;;;;;5096909;28;20048;-75
2022/01/20 12:36:55;;;;;;;19.30;3.80;;;5.10;99.90;;;;;;5095322;28;20051;-75
2022/01/20 12:39:32;;;;;;;16.33;2.90;;;5.00;99.90;;;;;;5096839;28;20078;-75
2022/01/20 12:42:04;;;;;;;19.27;3.67;;;4.90;99.90;;;;;;5095425;28;20541;-75
2022/01/20 12:45:55;;;;;;;17.15;3.17;;;4.80;99.90;;;;;;5095567;28;20048;-75
2022/01/20 12:47:51;;;;;;;18.13;3.33;;;4.80;99.90;;;;;;5095843;28;20135;-75
2022/01/20 12:50:17;;;;;;;14.13;3.10;;;4.70;99.90;;;;;;5095359;28;20128;-75
2022/01/20 12:52:50;;;;;;;13.90;3.40;;;4.80;99.90;;;;;;5095195;28;20044;-75
2022/01/20 12:55:20;;;;;;;19.77;3.60;;;4.80;99.90;;;;;;5096457;28;20052;-75
2022/01/20 12:57:46;;;;;;;18.35;3.15;;;4.90;99.90;;;;;;5096126;28;20079;-76
2022/01/20 13:00:12;;;;;;;14.33;2.73;;;4.90;99.90;;;;;;5095327;28;20444;-75
2022/01/20 13:02:38;;;;;;;18.15;3.50;;;4.90;99.90;;;;;;5095405;28;20050;-75
2022/01/20 13:05:06;;;;;;;14.43;3.00;;;4.90;99.90;;;;;;5095907;28;20386;-75
2022/01/20 13:07:35;;;;;;;20.77;3.15;;;4.90;99.90;;;;;;5096071;28;20058;-76
2022/01/20 13:10:19;;;;;;;15.98;3.88;;;4.90;99.90;;;;;;5094801;28;20044;-76
2022/01/20 13:12:46;;;;;;;17.88;3.13;;;4.90;99.90;;;;;;5096155;28;20044;-75
2022/01/20 13:15:19;;;;;;;15.70;2.92;;;4.90;99.90;;;;;;5095944;28;20128;-76
2022/01/20 13:17:47;;;;;;;18.05;2.80;;;4.90;99.90;;;;;;5095876;28;20109;-75
2022/01/20 13:20:20;;;;;;;15.57;2.67;;;5.00;99.90;;;;;;5094838;28;20499;-75
2022/01/20 13:22:56;;;;;;;16.17;3.10;;;5.00;99.40;;;;;;5096014;28;20051;-75
2022/01/20 13:25:27;;;;;;;17.77;3.42;;;5.10;99.70;;;;;;5094906;28;20488;-75
2022/01/20 13:28:02;;;;;;;20.40;3.92;;;5.10;99.50;;;;;;5095434;28;20044;-76
2022/01/20 13:30:40;;;;;;;10.32;2.30;;;5.10;99.30;;;;;;5095630;28;20047;-75
2022/01/20 13:33:14;;;;;;;9.48;1.50;;;5.10;99.90;;;;;;5095414;28;20048;-75
2022/01/20 13:35:45;;;;;;;9.27;1.83;;;4.90;99.90;;;;;;5094368;28;20058;-75
2022/01/20 13:38:11;;;;;;;8.90;2.13;;;4.70;99.90;;;;;;5094033;28;20092;-77
2022/01/20 13:40:38;;;;;;;9.83;1.60;;;4.70;99.90;;;;;;5077594;28;20102;-76
2022/01/20 13:45:45;;;;;;;9.48;1.73;;;4.40;99.90;;;;;;5095235;28;20134;-75
2022/01/20 13:48:26;;;;;;;9.88;1.80;;;4.40;99.90;;;;;;5094886;28;20468;-73
2022/01/20 13:50:58;;;;;;;9.43;1.83;;;4.30;99.90;;;;;;5094751;28;20047;-81
2022/01/20 13:53:27;;;;;;;12.05;1.98;;;4.30;99.90;;;;;;5094380;28;20047;-77
2022/01/20 13:55:56;;;;;;;10.13;1.92;;;4.50;99.90;;;;;;5093716;28;20036;-80
2022/01/20 13:58:33;;;;;;;13.65;2.20;;;4.40;99.90;;;;;;5077239;28;20044;-79
2022/01/20 14:01:05;;;;;;;11.73;2.47;;;4.50;99.90;;;;;;5093956;28;20415;-78
2022/01/20 14:03:31;;;;;;;9.77;1.95;;;4.60;99.90;;;;;;5093770;28;20082;-80
2022/01/20 14:05:56;;;;;;;12.60;1.70;;;4.50;99.90;;;;;;5093550;28;20088;-75